Time;durP1;ratioP1;P1;durP2;ratioP2;P2;SDS_P1;SDS_P2;PMS_P1;PMS_P2;Temp;Humidity;BMP_temperature;BMP_pressure;BME280_temperature;BME280_humidity;BME280_pressure;Samples;Min_cycle;Max_cycle;Signal;HPM_P1;HPM_P2
2022/09/22 00:00:33;;;;;;;0.28;0.28;;;19.60;57.20;;;;;;5084861;28;20044;-61
2022/09/22 00:02:58;;;;;;;0.22;0.22;;;19.60;56.60;;;;;;5084785;28;20024;-61
2022/09/22 00:05:25;;;;;;;0.30;0.30;;;19.60;56.60;;;;;;5084703;28;20017;-62
2022/09/22 00:07:52;;;;;;;0.45;0.30;;;19.60;56.60;;;;;;5084713;28;20019;-62
2022/09/22 00:10:20;;;;;;;0.22;0.22;;;19.60;56.60;;;;;;5084950;28;20027;-62
2022/09/22 00:12:46;;;;;;;0.32;0.32;;;19.60;56.60;;;;;;5084453;28;20040;-62
2022/09/22 00:15:13;;;;;;;0.10;0.10;;;19.60;56.60;;;;;;5084587;28;20070;-62
2022/09/22 00:17:38;;;;;;;0.57;0.30;;;19.60;56.60;;;;;;5084490;28;20020;-61
2022/09/22 00:20:05;;;;;;;0.30;0.30;;;19.50;56.50;;;;;;5084437;28;20127;-62
2022/09/22 00:22:32;;;;;;;0.30;0.30;;;19.50;56.60;;;;;;5084406;28;20062;-62
2022/09/22 00:24:58;;;;;;;0.20;0.20;;;19.60;56.60;;;;;;5084346;28;20063;-61
2022/09/22 00:27:24;;;;;;;0.40;0.20;;;19.60;56.60;;;;;;5084256;28;20019;-62
2022/09/22 00:29:50;;;;;;;0.30;0.30;;;19.50;56.60;;;;;;5083979;28;20024;-61
2022/09/22 00:32:19;;;;;;;0.30;0.30;;;19.60;56.60;;;;;;5084246;28;20330;-62
2022/09/22 00:34:44;;;;;;;0.22;0.10;;;19.50;56.50;;;;;;5084225;28;20017;-62
2022/09/22 00:37:11;;;;;;;0.35;0.35;;;19.50;56.50;;;;;;5084116;28;20027;-61
2022/09/22 00:39:37;;;;;;;0.28;0.28;;;19.50;56.60;;;;;;5084143;28;20028;-62
2022/09/22 00:42:03;;;;;;;0.30;0.20;;;19.50;56.60;;;;;;5084058;28;20023;-62
2022/09/22 00:44:34;;;;;;;0.20;0.20;;;19.50;56.60;;;;;;5083993;28;20024;-61
2022/09/22 00:47:12;;;;;;;0.40;0.40;;;19.50;56.60;;;;;;5083940;28;20200;-62
2022/09/22 00:50:03;;;;;;;0.40;0.37;;;19.50;57.20;;;;;;5083960;28;20259;-62
2022/09/22 00:52:50;;;;;;;0.13;0.13;;;19.50;56.60;;;;;;5083906;28;20020;-62
2022/09/22 00:55:28;;;;;;;0.47;0.40;;;19.50;56.60;;;;;;5083809;28;20017;-62
2022/09/22 00:57:55;;;;;;;0.40;0.40;;;19.50;56.60;;;;;;5083832;28;20185;-62
2022/09/22 01:00:21;;;;;;;0.32;0.20;;;19.50;56.60;;;;;;5083781;28;20092;-60
2022/09/22 01:02:54;;;;;;;0.20;0.20;;;19.50;56.60;;;;;;5083730;28;20062;-62
2022/09/22 01:05:21;;;;;;;0.32;0.30;;;19.50;56.60;;;;;;5083717;28;20012;-62
2022/09/22 01:07:47;;;;;;;0.93;0.40;;;19.50;56.60;;;;;;5083675;28;20025;-61
2022/09/22 01:10:14;;;;;;;0.20;0.20;;;19.50;56.70;;;;;;5083611;28;20024;-62
2022/09/22 01:12:52;;;;;;;0.25;0.25;;;19.50;56.60;;;;;;5083447;28;20240;-62
2022/09/22 01:15:18;;;;;;;0.35;0.30;;;19.50;56.70;;;;;;5083622;28;20047;-62
2022/09/22 01:17:55;;;;;;;0.30;0.30;;;19.50;56.70;;;;;;5083508;28;20308;-62
2022/09/22 01:20:49;;;;;;;0.30;0.30;;;19.40;56.60;;;;;;5083517;28;20028;-62
2022/09/22 01:23:27;;;;;;;0.38;0.30;;;19.50;56.70;;;;;;5083550;28;20025;-63
2022/09/22 01:26:20;;;;;;;0.40;0.40;;;19.50;56.60;;;;;;5065554;28;20240;-61
2022/09/22 01:29:24;;;;;;;0.30;0.30;;;19.50;56.70;;;;;;5083393;28;20340;-61
2022/09/22 01:32:03;;;;;;;0.68;0.30;;;19.50;56.70;;;;;;5083371;28;20016;-61
2022/09/22 01:34:39;;;;;;;0.30;0.30;;;19.40;56.60;;;;;;5083427;28;20013;-61
2022/09/22 01:37:42;;;;;;;0.25;0.25;;;19.40;56.60;;;;;;5083464;28;20298;-61
2022/09/22 01:40:41;;;;;;;0.30;0.30;;;19.40;56.60;;;;;;5083367;28;20016;-61
2022/09/22 01:43:10;;;;;;;0.25;0.25;;;19.40;56.60;;;;;;5057028;28;20050;-61
2022/09/22 01:45:40;;;;;;;0.13;0.13;;;19.40;56.60;;;;;;5087381;28;20020;-61
2022/09/22 01:48:19;;;;;;;0.50;0.30;;;19.40;56.60;;;;;;5087355;28;20008;-61
2022/09/22 01:51:05;;;;;;;0.30;0.30;;;19.40;56.60;;;;;;5087386;28;20040;-61
2022/09/22 01:53:41;;;;;;;0.50;0.35;;;19.40;56.60;;;;;;5087301;28;20122;-61
2022/09/22 01:56:09;;;;;;;0.55;0.35;;;19.40;56.70;;;;;;5087276;28;20080;-62
2022/09/22 01:58:41;;;;;;;0.28;0.28;;;19.40;56.60;;;;;;5069306;28;20100;-61
2022/09/22 02:01:14;;;;;;;0.22;0.20;;;19.40;56.60;;;;;;5087185;28;20028;-62
2022/09/22 02:03:55;;;;;;;0.30;0.30;;;19.40;56.70;;;;;;5087166;28;20028;-61
2022/09/22 02:06:47;;;;;;;0.30;0.30;;;19.40;56.70;;;;;;5087024;28;20031;-62
2022/09/22 02:09:20;;;;;;;0.20;0.20;;;19.40;56.70;;;;;;5080575;28;20051;-60
2022/09/22 02:11:47;;;;;;;0.20;0.20;;;19.40;56.70;;;;;;5086986;28;20312;-61
2022/09/22 02:14:14;;;;;;;0.30;0.30;;;19.40;56.70;;;;;;5086770;28;20060;-61
2022/09/22 02:16:40;;;;;;;0.20;0.20;;;19.40;56.60;;;;;;5086858;28;20016;-61
2022/09/22 02:19:19;;;;;;;0.30;0.28;;;19.40;56.60;;;;;;5086773;28;20020;-62
2022/09/22 02:21:47;;;;;;;0.30;0.30;;;19.30;56.60;;;;;;5068941;28;20047;-62
2022/09/22 02:24:39;;;;;;;0.68;0.30;;;19.30;56.60;;;;;;5086706;28;20340;-60
2022/09/22 02:27:34;;;;;;;0.20;0.20;;;19.40;56.70;;;;;;5086592;28;20332;-61
2022/09/22 02:30:09;;;;;;;0.20;0.20;;;19.40;56.70;;;;;;5086663;28;20327;-61
2022/09/22 02:32:38;;;;;;;0.30;0.30;;;19.30;56.60;;;;;;5086516;28;20021;-62
2022/09/22 02:35:06;;;;;;;0.35;0.35;;;19.30;56.60;;;;;;5086799;28;20017;-62
2022/09/22 02:38:00;;;;;;;0.47;0.30;;;19.30;56.60;;;;;;5068662;28;20312;-62
2022/09/22 02:40:47;;;;;;;0.40;0.30;;;19.30;56.60;;;;;;5086429;28;20032;-62
2022/09/22 02:43:16;;;;;;;0.40;0.30;;;19.30;56.70;;;;;;5086355;28;20028;-60
2022/09/22 02:46:02;;;;;;;0.30;0.30;;;19.30;56.60;;;;;;5086275;28;20368;-61
2022/09/22 02:48:32;;;;;;;0.20;0.20;;;19.30;56.60;;;;;;5086568;28;20043;-61
2022/09/22 02:50:58;;;;;;;0.45;0.30;;;19.30;56.60;;;;;;5086203;28;20075;-61
2022/09/22 02:53:23;;;;;;;0.20;0.20;;;19.30;56.60;;;;;;5086079;28;20017;-60
2022/09/22 02:55:49;;;;;;;0.32;0.30;;;19.30;56.70;;;;;;5086115;28;20031;-61
2022/09/22 02:58:16;;;;;;;0.93;0.20;;;19.30;56.70;;;;;;5086094;28;20024;-60
2022/09/22 03:00:44;;;;;;;0.30;0.30;;;19.30;56.70;;;;;;5086052;28;20020;-61
2022/09/22 03:03:11;;;;;;;0.22;0.22;;;19.30;57.30;;;;;;5086036;28;20024;-61
2022/09/22 03:05:38;;;;;;;0.30;0.28;;;19.30;56.60;;;;;;5085872;28;20025;-60
2022/09/22 03:08:04;;;;;;;0.32;0.32;;;19.30;56.60;;;;;;5085889;28;20017;-61
2022/09/22 03:10:30;;;;;;;0.30;0.30;;;19.30;56.60;;;;;;5085887;28;20309;-61
2022/09/22 03:12:56;;;;;;;0.30;0.30;;;19.20;56.60;;;;;;5085676;28;20089;-61
2022/09/22 03:15:22;;;;;;;0.63;0.30;;;19.30;56.70;;;;;;5086370;28;20028;-62
2022/09/22 03:17:49;;;;;;;0.30;0.30;;;19.30;56.70;;;;;;5068310;28;20055;-61
2022/09/22 03:20:15;;;;;;;0.30;0.28;;;19.30;56.70;;;;;;5085699;28;20017;-61
2022/09/22 03:22:41;;;;;;;0.22;0.22;;;19.30;56.70;;;;;;5085654;28;20024;-60
2022/09/22 03:25:09;;;;;;;0.30;0.30;;;19.30;56.70;;;;;;5085631;28;20016;-61
2022/09/22 03:27:35;;;;;;;3.20;0.30;;;19.30;57.30;;;;;;5085534;28;20024;-60
2022/09/22 03:30:03;;;;;;;0.30;0.30;;;19.30;56.70;;;;;;5085515;28;20024;-61
2022/09/22 03:32:30;;;;;;;0.30;0.30;;;19.30;56.70;;;;;;5085524;28;20078;-60
2022/09/22 03:34:56;;;;;;;0.30;0.30;;;19.30;56.70;;;;;;5085420;28;20082;-61
2022/09/22 03:37:21;;;;;;;0.40;0.30;;;19.30;56.70;;;;;;5085371;28;20243;-61
2022/09/22 03:39:47;;;;;;;0.30;0.20;;;19.20;56.60;;;;;;5085335;28;20021;-61
2022/09/22 03:42:13;;;;;;;0.40;0.40;;;19.20;56.70;;;;;;5085282;28;20086;-60
2022/09/22 03:44:39;;;;;;;0.30;0.30;;;19.20;56.70;;;;;;5085246;28;20027;-61
2022/09/22 03:47:04;;;;;;;0.40;0.40;;;19.20;56.70;;;;;;5067291;28;20316;-62
2022/09/22 03:49:30;;;;;;;0.30;0.30;;;19.20;56.70;;;;;;5085147;28;20020;-61
2022/09/22 03:51:56;;;;;;;0.57;0.40;;;19.20;56.70;;;;;;5085061;28;20021;-61
2022/09/22 03:54:22;;;;;;;0.35;0.35;;;19.20;56.70;;;;;;5085014;28;20033;-60
2022/09/22 03:56:48;;;;;;;0.22;0.22;;;19.20;56.70;;;;;;5085213;28;20021;-61
2022/09/22 03:59:14;;;;;;;0.30;0.30;;;19.20;56.70;;;;;;5084927;28;20324;-61
2022/09/22 04:01:40;;;;;;;0.38;0.28;;;19.20;56.70;;;;;;5084914;28;20024;-62
2022/09/22 04:04:06;;;;;;;0.63;0.30;;;19.20;56.70;;;;;;5084295;28;20078;-61
2022/09/22 04:06:32;;;;;;;0.30;0.30;;;19.20;56.70;;;;;;5084994;28;20027;-61
2022/09/22 04:08:59;;;;;;;0.57;0.55;;;19.20;56.70;;;;;;5084762;28;20300;-61
2022/09/22 04:11:24;;;;;;;0.38;0.38;;;19.20;56.60;;;;;;5084653;28;20217;-61
2022/09/22 04:13:50;;;;;;;1.60;0.40;;;19.20;56.70;;;;;;5084468;28;20044;-62
2022/09/22 04:16:16;;;;;;;0.30;0.30;;;19.20;56.70;;;;;;5084581;28;20084;-61
2022/09/22 04:18:42;;;;;;;0.30;0.30;;;19.20;56.70;;;;;;5084526;28;20066;-61
2022/09/22 04:21:08;;;;;;;0.40;0.40;;;19.10;56.60;;;;;;5084488;28;20079;-62
2022/09/22 04:23:36;;;;;;;0.30;0.30;;;19.20;56.70;;;;;;5084452;28;20025;-62
2022/09/22 04:26:03;;;;;;;0.32;0.30;;;19.20;56.70;;;;;;5084331;28;20253;-62
2022/09/22 04:28:29;;;;;;;0.43;0.20;;;19.20;56.60;;;;;;5084343;28;20069;-60
2022/09/22 04:30:56;;;;;;;0.22;0.20;;;19.10;56.60;;;;;;5084260;28;20013;-61
2022/09/22 04:33:22;;;;;;;0.50;0.40;;;19.10;56.60;;;;;;5084242;28;20042;-61
2022/09/22 04:35:48;;;;;;;0.40;0.40;;;19.10;56.70;;;;;;5084203;28;20058;-62
2022/09/22 04:38:15;;;;;;;0.40;0.40;;;19.10;56.60;;;;;;5084172;28;20044;-61
2022/09/22 04:40:41;;;;;;;0.20;0.13;;;19.10;56.60;;;;;;5084133;28;20085;-60
2022/09/22 04:43:07;;;;;;;0.25;0.25;;;19.10;57.20;;;;;;5084058;28;20024;-61
2022/09/22 04:45:32;;;;;;;0.30;0.30;;;19.10;56.60;;;;;;5083982;28;20044;-61
2022/09/22 04:47:58;;;;;;;0.40;0.40;;;19.10;56.60;;;;;;5083998;28;20027;-61
2022/09/22 04:50:24;;;;;;;0.30;0.30;;;19.10;56.60;;;;;;5083980;28;20046;-61
2022/09/22 04:52:55;;;;;;;0.30;0.30;;;19.10;56.60;;;;;;5083951;28;20021;-61
2022/09/22 04:55:23;;;;;;;0.40;0.40;;;19.10;56.60;;;;;;5083876;28;20204;-61
2022/09/22 04:57:54;;;;;;;0.98;0.20;;;19.10;56.60;;;;;;5083880;28;20209;-60
2022/09/22 05:00:21;;;;;;;0.10;0.10;;;19.10;56.60;;;;;;5083829;28;20017;-61
2022/09/22 05:02:47;;;;;;;0.28;0.28;;;19.10;56.60;;;;;;5083805;28;20027;-61
2022/09/22 05:05:13;;;;;;;0.20;0.20;;;19.10;56.60;;;;;;5083741;28;20020;-62
2022/09/22 05:07:45;;;;;;;0.80;0.40;;;19.10;56.50;;;;;;5083641;28;20025;-61
2022/09/22 05:10:12;;;;;;;0.73;0.47;;;19.10;56.60;;;;;;5083725;28;20043;-61
2022/09/22 05:12:41;;;;;;;0.22;0.22;;;19.10;56.60;;;;;;5083476;28;20067;-62
2022/09/22 05:15:10;;;;;;;0.30;0.28;;;19.10;56.60;;;;;;5083497;28;20209;-62
2022/09/22 05:17:36;;;;;;;0.70;0.40;;;19.10;56.60;;;;;;5082986;28;20029;-62
2022/09/22 05:20:05;;;;;;;0.30;0.20;;;19.10;56.50;;;;;;5083629;28;20020;-62
2022/09/22 05:22:31;;;;;;;0.30;0.30;;;19.10;56.50;;;;;;5083496;28;20087;-62
2022/09/22 05:24:57;;;;;;;0.20;0.20;;;19.10;56.50;;;;;;5083530;28;20083;-61
2022/09/22 05:27:23;;;;;;;0.32;0.32;;;19.10;56.50;;;;;;5083418;28;20031;-61
2022/09/22 05:29:49;;;;;;;0.40;0.40;;;19.10;57.10;;;;;;5083484;28;20260;-61
2022/09/22 05:32:15;;;;;;;0.32;0.30;;;19.10;56.50;;;;;;5083446;28;20020;-61
2022/09/22 05:34:41;;;;;;;0.30;0.30;;;19.10;56.50;;;;;;5083408;28;20062;-61
2022/09/22 05:37:06;;;;;;;0.40;0.40;;;19.10;56.50;;;;;;5083397;28;20047;-61
2022/09/22 05:39:32;;;;;;;0.28;0.28;;;19.10;56.50;;;;;;5083408;28;20044;-62
2022/09/22 05:41:58;;;;;;;0.30;0.30;;;19.10;56.50;;;;;;5083332;28;20030;-62
2022/09/22 05:44:24;;;;;;;0.57;0.40;;;19.10;56.50;;;;;;5083326;28;20025;-61
2022/09/22 05:46:49;;;;;;;0.15;0.15;;;19.10;56.60;;;;;;5083234;28;20024;-62
2022/09/22 05:49:15;;;;;;;0.30;0.30;;;19.10;56.50;;;;;;5083258;28;20017;-61
2022/09/22 05:51:41;;;;;;;0.65;0.40;;;19.10;56.60;;;;;;5083266;28;20208;-61
2022/09/22 05:54:08;;;;;;;0.13;0.13;;;19.00;56.50;;;;;;5083241;28;20028;-62
2022/09/22 05:56:34;;;;;;;0.30;0.30;;;19.10;56.50;;;;;;5083178;28;20027;-62
2022/09/22 05:59:00;;;;;;;0.68;0.38;;;19.10;56.50;;;;;;5083222;28;20043;-62
2022/09/22 06:01:26;;;;;;;0.28;0.28;;;19.10;56.50;;;;;;5083173;28;20308;-62
2022/09/22 06:03:52;;;;;;;0.60;0.47;;;19.10;56.50;;;;;;5083139;28;20021;-63
2022/09/22 06:06:17;;;;;;;0.30;0.30;;;19.10;56.50;;;;;;5083041;28;20031;-62
2022/09/22 06:08:43;;;;;;;0.30;0.30;;;19.10;56.50;;;;;;5083040;28;20013;-61
2022/09/22 06:11:09;;;;;;;0.30;0.30;;;19.10;56.40;;;;;;5083046;28;20024;-61
2022/09/22 06:13:35;;;;;;;0.40;0.40;;;19.10;56.40;;;;;;5082883;28;20055;-61
2022/09/22 06:16:01;;;;;;;0.30;0.30;;;19.10;56.40;;;;;;5082995;28;20031;-62
2022/09/22 06:18:28;;;;;;;0.52;0.40;;;19.10;56.40;;;;;;5083005;28;20021;-61
2022/09/22 06:20:55;;;;;;;0.30;0.30;;;19.10;56.40;;;;;;5082985;28;20024;-62
2022/09/22 06:23:21;;;;;;;0.32;0.30;;;19.10;56.40;;;;;;5082960;28;20020;-62
2022/09/22 06:25:47;;;;;;;0.30;0.30;;;19.10;56.40;;;;;;5082856;28;20021;-62
2022/09/22 06:28:14;;;;;;;0.38;0.35;;;19.10;56.40;;;;;;5084971;28;20079;-61
2022/09/22 06:30:40;;;;;;;0.65;0.40;;;19.10;56.40;;;;;;5086621;28;20023;-62
2022/09/22 06:33:10;;;;;;;0.47;0.30;;;19.10;56.40;;;;;;5086568;28;20074;-62
2022/09/22 06:35:36;;;;;;;0.35;0.35;;;19.10;56.30;;;;;;5086784;28;20308;-63
2022/09/22 06:38:05;;;;;;;0.35;0.35;;;19.10;56.30;;;;;;5086496;28;20201;-62
2022/09/22 06:40:31;;;;;;;0.22;0.20;;;19.10;56.40;;;;;;5086470;28;20312;-62
2022/09/22 06:43:06;;;;;;;0.50;0.30;;;19.10;56.20;;;;;;5086348;28;20031;-61
2022/09/22 06:45:32;;;;;;;0.22;0.22;;;19.20;56.30;;;;;;5086337;28;20012;-62
2022/09/22 06:48:02;;;;;;;0.30;0.30;;;19.20;56.30;;;;;;5086252;28;20190;-62
2022/09/22 06:50:31;;;;;;;0.30;0.30;;;19.20;56.30;;;;;;5086225;28;20013;-61
2022/09/22 06:53:02;;;;;;;0.30;0.30;;;19.10;56.20;;;;;;5086238;28;20304;-61
2022/09/22 06:55:29;;;;;;;0.43;0.35;;;19.20;56.30;;;;;;5086204;28;20027;-61
2022/09/22 06:57:57;;;;;;;0.30;0.30;;;19.20;56.30;;;;;;5086077;28;20021;-60
2022/09/22 07:00:27;;;;;;;0.20;0.20;;;19.20;56.30;;;;;;5086108;28;20205;-61
2022/09/22 07:03:21;;;;;;;0.22;0.20;;;19.10;56.30;;;;;;5086050;28;20021;-60
2022/09/22 07:05:57;;;;;;;0.20;0.20;;;19.10;56.40;;;;;;5085734;28;20339;-62
2022/09/22 07:08:24;;;;;;;0.25;0.22;;;19.10;56.40;;;;;;5085967;28;20025;-62
2022/09/22 07:10:59;;;;;;;0.35;0.35;;;19.10;56.40;;;;;;5085940;28;20024;-61
2022/09/22 07:13:28;;;;;;;0.20;0.20;;;19.20;56.30;;;;;;5085701;28;20224;-61
2022/09/22 07:16:02;;;;;;;0.60;0.40;;;19.20;56.30;;;;;;5085796;28;20201;-61
2022/09/22 07:18:28;;;;;;;0.43;0.40;;;19.10;56.30;;;;;;5085795;28;20020;-62
2022/09/22 07:21:08;;;;;;;0.32;0.30;;;19.20;56.30;;;;;;5085700;28;20020;-62
2022/09/22 07:23:35;;;;;;;0.30;0.30;;;19.20;56.30;;;;;;5085705;28;20075;-61
2022/09/22 07:26:05;;;;;;;0.55;0.40;;;19.20;56.20;;;;;;5085777;28;20027;-61
2022/09/22 07:28:33;;;;;;;0.30;0.30;;;19.10;56.40;;;;;;5085562;28;20040;-61
2022/09/22 07:31:04;;;;;;;0.45;0.30;;;19.10;56.60;;;;;;5085577;28;20190;-60
2022/09/22 07:33:32;;;;;;;0.28;0.28;;;19.00;56.60;;;;;;5085440;28;20032;-62
2022/09/22 07:36:09;;;;;;;0.20;0.20;;;19.10;56.50;;;;;;5085406;28;20020;-61
2022/09/22 07:38:37;;;;;;;0.43;0.43;;;19.10;56.40;;;;;;5084823;28;20024;-62
2022/09/22 07:41:11;;;;;;;0.35;0.35;;;19.10;56.40;;;;;;5084950;28;20044;-62
2022/09/22 07:43:38;;;;;;;0.32;0.32;;;19.20;56.40;;;;;;5085312;28;20016;-62
2022/09/22 07:46:04;;;;;;;0.50;0.50;;;19.20;56.40;;;;;;5085389;28;20021;-62
2022/09/22 07:48:36;;;;;;;0.30;0.30;;;19.10;56.40;;;;;;5067318;28;20292;-62
2022/09/22 07:51:24;;;;;;;0.30;0.30;;;19.10;56.40;;;;;;5085185;28;20324;-62
2022/09/22 07:54:12;;;;;;;0.20;0.20;;;19.20;56.50;;;;;;5085073;28;20085;-61
2022/09/22 07:56:40;;;;;;;;;;;19.10;56.40;;;;;;5085442;28;20020;-62
2022/09/22 07:59:09;;;;;;;1.73;0.50;;;19.10;56.50;;;;;;5084979;28;20073;-61
2022/09/22 08:01:36;;;;;;;0.90;0.30;;;19.10;56.50;;;;;;5084891;28;20031;-63
2022/09/22 08:04:03;;;;;;;0.52;0.45;;;19.20;56.30;;;;;;5084881;28;20020;-62
2022/09/22 08:06:30;;;;;;;0.40;0.30;;;19.20;56.20;;;;;;5084685;28;20031;-61
2022/09/22 08:08:57;;;;;;;0.45;0.45;;;19.20;56.30;;;;;;5084738;28;20009;-61
2022/09/22 08:11:27;;;;;;;0.30;0.30;;;19.20;56.60;;;;;;5084703;28;20021;-62
2022/09/22 08:13:58;;;;;;;0.38;0.38;;;19.10;56.60;;;;;;5066595;28;20198;-61
2022/09/22 08:16:27;;;;;;;0.20;0.20;;;19.10;56.80;;;;;;5084618;28;20190;-61
2022/09/22 08:18:58;;;;;;;0.43;0.43;;;19.10;56.70;;;;;;5084561;28;20027;-61
2022/09/22 08:21:31;;;;;;;0.20;0.20;;;19.10;56.70;;;;;;5084795;28;20020;-61
2022/09/22 08:23:58;;;;;;;0.60;0.38;;;19.10;56.60;;;;;;5084500;28;20036;-61
2022/09/22 08:26:24;;;;;;;0.28;0.20;;;19.10;56.70;;;;;;5084638;28;20013;-61
2022/09/22 08:28:51;;;;;;;0.50;0.50;;;19.10;56.60;;;;;;5084357;28;20062;-60
2022/09/22 08:31:20;;;;;;;0.32;0.32;;;19.10;56.70;;;;;;5084306;28;20123;-60
2022/09/22 08:33:46;;;;;;;;;;;19.10;56.80;;;;;;5084715;28;20205;-60
2022/09/22 08:36:12;;;;;;;0.70;0.57;;;19.10;56.90;;;;;;5084252;28;19900;-61
2022/09/22 08:38:38;;;;;;;0.30;0.30;;;19.10;57.00;;;;;;5084156;28;20016;-61
2022/09/22 08:41:23;;;;;;;0.22;0.22;;;19.10;56.90;;;;;;5084120;28;20069;-61
2022/09/22 08:43:54;;;;;;;0.40;0.30;;;19.10;56.80;;;;;;5084024;28;20028;-60
2022/09/22 08:46:34;;;;;;;0.45;0.40;;;19.10;56.90;;;;;;5084035;28;20020;-61
2022/09/22 08:52:40;;;;;;;0.60;0.40;;;19.10;57.00;;;;;;5083881;28;20269;-61
2022/09/22 08:55:22;;;;;;;0.50;0.40;;;19.10;56.90;;;;;;5083890;28;20058;-61
2022/09/22 08:57:59;;;;;;;0.30;0.30;;;19.20;56.90;;;;;;5083892;28;20025;-60
2022/09/22 09:00:33;;;;;;;0.40;0.40;;;19.20;56.80;;;;;;5083844;28;20327;-62
2022/09/22 09:03:28;;;;;;;0.30;0.30;;;19.20;56.80;;;;;;5083874;28;20031;-61
2022/09/22 09:06:15;;;;;;;0.22;0.20;;;19.20;56.80;;;;;;5083745;28;20019;-62
2022/09/22 09:08:56;;;;;;;0.22;0.22;;;19.20;56.80;;;;;;5083784;28;20019;-61
2022/09/22 09:11:37;;;;;;;0.30;0.30;;;19.20;56.80;;;;;;5083726;28;20019;-61
2022/09/22 09:14:22;;;;;;;0.70;0.55;;;19.20;56.80;;;;;;5065661;28;20040;-61
2022/09/22 09:16:56;;;;;;;0.32;0.32;;;19.20;56.90;;;;;;5083697;28;20204;-62
2022/09/22 09:19:32;;;;;;;0.57;0.20;;;19.20;56.70;;;;;;5083643;28;20017;-61
2022/09/22 09:22:05;;;;;;;0.17;0.17;;;19.20;56.70;;;;;;5083649;28;20087;-61
2022/09/22 09:24:35;;;;;;;0.47;0.47;;;19.20;56.70;;;;;;5083621;28;20316;-61
2022/09/22 09:27:10;;;;;;;0.28;0.28;;;19.30;56.70;;;;;;5083753;28;20091;-61
2022/09/22 09:29:46;;;;;;;0.20;0.20;;;19.30;56.70;;;;;;5083557;28;20016;-61
2022/09/22 09:32:24;;;;;;;0.30;0.30;;;19.20;56.60;;;;;;5083525;28;20024;-62
2022/09/22 09:34:49;;;;;;;0.35;0.35;;;19.30;56.60;;;;;;5083505;28;20020;-61
2022/09/22 09:37:17;;;;;;;0.20;0.20;;;19.30;56.50;;;;;;5083391;28;20021;-61
2022/09/22 09:39:44;;;;;;;0.28;0.25;;;19.30;56.50;;;;;;5083426;28;20017;-61
2022/09/22 09:42:21;;;;;;;0.30;0.30;;;19.30;56.50;;;;;;5083397;28;20060;-62
2022/09/22 09:44:52;;;;;;;0.52;0.38;;;19.30;56.50;;;;;;5083357;28;20021;-61
2022/09/22 09:47:54;;;;;;;0.40;0.40;;;19.40;56.40;;;;;;5083325;28;20021;-61
2022/09/22 09:50:23;;;;;;;0.10;0.10;;;19.40;56.40;;;;;;5083386;28;20025;-62
2022/09/22 09:52:49;;;;;;;0.20;0.20;;;19.40;56.40;;;;;;5083321;28;20028;-61
2022/09/22 09:55:20;;;;;;;0.28;0.28;;;19.40;56.30;;;;;;5083309;28;20182;-61
2022/09/22 10:00:29;;;;;;;0.20;0.20;;;19.40;56.40;;;;;;5083219;28;20216;-61
2022/09/22 10:00:59;;;;;;;0.43;0.30;;;19.40;56.40;;;;;;5083077;28;20029;-61
2022/09/22 10:03:39;;;;;;;0.30;0.30;;;19.40;56.40;;;;;;5085791;28;20020;-60
2022/09/22 10:06:09;;;;;;;0.35;0.35;;;19.40;56.40;;;;;;5087112;28;20304;-60
2022/09/22 10:08:46;;;;;;;0.30;0.30;;;19.40;56.30;;;;;;5087077;28;20024;-61
2022/09/22 10:11:13;;;;;;;0.28;0.28;;;19.40;56.30;;;;;;5087345;28;20016;-61
2022/09/22 10:13:41;;;;;;;0.30;0.30;;;19.40;56.40;;;;;;5086858;28;20328;-61
2022/09/22 10:16:22;;;;;;;0.27;0.27;;;19.40;56.40;;;;;;5086983;28;20025;-61
2022/09/22 10:19:02;;;;;;;1.20;0.38;;;19.50;56.40;;;;;;5086881;28;20024;-61
2022/09/22 10:21:28;;;;;;;0.45;0.30;;;19.50;56.40;;;;;;5086855;28;20043;-62
2022/09/22 10:23:56;;;;;;;0.30;0.30;;;19.50;56.30;;;;;;5086761;28;20020;-62
2022/09/22 10:26:30;;;;;;;0.20;0.20;;;19.50;56.40;;;;;;5086674;28;20021;-62
2022/09/22 10:29:11;;;;;;;0.40;0.40;;;19.50;56.40;;;;;;5086688;28;20021;-61
2022/09/22 10:31:41;;;;;;;0.45;0.30;;;19.50;56.40;;;;;;5086636;28;20328;-62
2022/09/22 10:34:27;;;;;;;0.30;0.30;;;19.50;56.40;;;;;;5086547;28;20020;-61
2022/09/22 10:36:54;;;;;;;0.45;0.45;;;19.50;56.30;;;;;;5086531;28;20087;-60
2022/09/22 10:39:21;;;;;;;0.75;0.30;;;19.50;56.30;;;;;;5086494;28;20016;-60
2022/09/22 10:41:48;;;;;;;0.30;0.30;;;19.50;56.30;;;;;;5086413;28;20091;-61
2022/09/22 10:44:19;;;;;;;0.20;0.20;;;19.60;56.30;;;;;;5086371;28;20245;-61
2022/09/22 10:46:56;;;;;;;0.40;0.40;;;19.60;56.30;;;;;;5086323;28;20020;-61
2022/09/22 10:49:53;;;;;;;0.28;0.28;;;19.60;56.40;;;;;;5068537;28;20027;-62
2022/09/22 10:52:40;;;;;;;0.20;0.20;;;19.60;56.30;;;;;;5086286;28;20066;-61
2022/09/22 10:55:24;;;;;;;0.30;0.30;;;19.60;56.30;;;;;;5086286;28;20271;-60
2022/09/22 10:58:02;;;;;;;0.40;0.40;;;19.60;56.30;;;;;;5068377;28;20258;-62
2022/09/22 11:00:38;;;;;;;0.70;0.35;;;19.60;56.20;;;;;;5068335;28;20201;-61
2022/09/22 11:03:23;;;;;;;0.15;0.15;;;19.60;56.20;;;;;;5086104;28;20024;-62
2022/09/22 11:12:30;;;;;;;0.40;0.40;;;19.70;56.20;;;;;;5085820;28;20024;-62
2022/09/22 11:15:23;;;;;;;0.30;0.30;;;19.70;56.10;;;;;;5084536;28;20021;-61
2022/09/22 11:18:17;;;;;;;0.22;0.22;;;19.70;56.20;;;;;;5085845;28;20028;-60
2022/09/22 11:20:58;;;;;;;0.22;0.22;;;19.70;56.10;;;;;;5085763;28;20051;-61
2022/09/22 11:23:42;;;;;;;0.30;0.20;;;19.70;56.10;;;;;;5085762;28;20308;-61
2022/09/22 11:26:14;;;;;;;0.25;0.25;;;19.80;56.10;;;;;;5085592;28;20331;-61
2022/09/22 11:28:50;;;;;;;0.20;0.10;;;19.80;56.10;;;;;;5085646;28;20044;-62
2022/09/22 11:31:29;;;;;;;0.40;0.40;;;19.80;56.10;;;;;;5085215;28;20017;-62
2022/09/22 11:34:10;;;;;;;0.32;0.30;;;19.80;56.00;;;;;;5085533;28;20036;-60
2022/09/22 11:36:54;;;;;;;0.43;0.35;;;19.80;56.00;;;;;;5085510;28;20051;-61
2022/09/22 11:39:38;;;;;;;0.60;0.45;;;19.80;56.00;;;;;;5085439;28;20020;-61
2022/09/22 11:42:12;;;;;;;0.30;0.30;;;19.80;56.00;;;;;;5085410;28;20020;-62
2022/09/22 11:45:06;;;;;;;0.40;0.40;;;19.80;56.00;;;;;;5085332;28;20090;-62
2022/09/22 11:47:56;;;;;;;0.43;0.43;;;19.90;56.00;;;;;;5085236;28;20028;-61
2022/09/22 11:50:32;;;;;;;0.30;0.30;;;19.90;55.90;;;;;;5085232;28;20316;-61
2022/09/22 11:53:36;;;;;;;0.38;0.30;;;19.90;55.90;;;;;;5085152;28;20027;-62
2022/09/22 11:56:24;;;;;;;0.17;0.17;;;19.90;55.90;;;;;;5085065;28;20114;-62
2022/09/22 11:58:54;;;;;;;0.25;0.25;;;19.90;56.00;;;;;;5085376;28;20024;-62
2022/09/22 12:01:28;;;;;;;0.40;0.40;;;19.90;56.10;;;;;;5085247;28;20024;-62
2022/09/22 12:04:03;;;;;;;0.15;0.15;;;19.90;56.10;;;;;;5084941;28;20328;-62
2022/09/22 12:06:35;;;;;;;0.30;0.30;;;19.90;56.00;;;;;;5084726;28;20087;-61
2022/09/22 12:09:18;;;;;;;0.40;0.40;;;19.90;56.00;;;;;;5084809;28;20023;-61
2022/09/22 12:11:44;;;;;;;0.22;0.22;;;20.00;55.90;;;;;;5084775;28;20080;-60
2022/09/22 12:14:14;;;;;;;0.43;0.40;;;20.00;55.90;;;;;;5084566;28;20090;-61
2022/09/22 12:16:55;;;;;;;0.20;0.20;;;20.00;55.90;;;;;;5084636;28;20024;-61
2022/09/22 12:19:39;;;;;;;0.20;0.20;;;20.00;55.80;;;;;;5084643;28;20240;-61
2022/09/22 12:22:34;;;;;;;0.20;0.20;;;20.00;55.80;;;;;;5084563;28;20216;-60
2022/09/22 12:25:00;;;;;;;0.38;0.30;;;20.00;55.80;;;;;;5084095;28;20313;-61
2022/09/22 12:27:28;;;;;;;0.30;0.30;;;20.00;55.90;;;;;;5084357;28;20083;-61
2022/09/22 12:30:00;;;;;;;1.75;0.40;;;20.10;55.90;;;;;;5084403;28;20027;-61
2022/09/22 12:32:39;;;;;;;0.22;0.22;;;20.00;55.80;;;;;;5084371;28;20020;-62
2022/09/22 12:35:17;;;;;;;0.20;0.20;;;20.10;55.80;;;;;;5084323;28;20016;-61
2022/09/22 12:37:43;;;;;;;0.30;0.30;;;20.10;55.80;;;;;;5084288;28;20320;-61
2022/09/22 12:40:31;;;;;;;0.55;0.30;;;20.10;55.80;;;;;;5084205;28;20048;-61
2022/09/22 12:43:00;;;;;;;0.30;0.30;;;20.10;55.70;;;;;;5084154;28;20020;-60
2022/09/22 12:45:35;;;;;;;0.38;0.20;;;20.10;55.70;;;;;;5084088;28;20024;-61
2022/09/22 12:48:11;;;;;;;0.38;0.38;;;20.10;55.80;;;;;;5083947;28;20091;-61
2022/09/22 12:50:42;;;;;;;0.17;0.17;;;20.20;55.70;;;;;;5084047;28;20076;-61
2022/09/22 12:53:27;;;;;;;0.25;0.25;;;20.10;55.70;;;;;;5083953;28;20013;-61
2022/09/22 12:55:55;;;;;;;0.30;0.30;;;20.10;55.90;;;;;;5083930;28;20071;-61
2022/09/22 12:58:21;;;;;;;0.43;0.40;;;20.10;56.00;;;;;;5083929;28;20095;-60
2022/09/22 13:00:51;;;;;;;0.35;0.30;;;20.30;55.60;;;;;;5083887;28;20316;-61
2022/09/22 13:03:23;;;;;;;0.50;0.50;;;20.40;55.20;;;;;;5083825;28;20205;-60
2022/09/22 13:05:57;;;;;;;0.43;0.40;;;20.40;55.00;;;;;;5083709;28;20020;-61
2022/09/22 13:08:29;;;;;;;0.30;0.30;;;20.30;55.40;;;;;;5083736;28;20091;-61
2022/09/22 13:11:05;;;;;;;0.32;0.32;;;20.10;55.80;;;;;;5083745;28;20019;-61
2022/09/22 13:13:31;;;;;;;0.40;0.40;;;20.20;55.90;;;;;;5083570;28;20221;-61
2022/09/22 13:16:00;;;;;;;0.30;0.30;;;20.50;55.20;;;;;;5083690;28;20016;-62
2022/09/22 13:18:42;;;;;;;0.30;0.30;;;20.70;54.50;;;;;;5083624;28;20016;-61
2022/09/22 13:21:11;;;;;;;0.40;0.40;;;21.00;53.90;;;;;;5083613;28;20230;-61
2022/09/22 13:23:49;;;;;;;0.90;0.47;;;21.10;53.70;;;;;;5083628;28;20189;-61